Time;durP1;ratioP1;P1;durP2;ratioP2;P2;SDS_P1;SDS_P2;PMS_P1;PMS_P2;Temp;Humidity;BMP_temperature;BMP_pressure;BME280_temperature;BME280_humidity;BME280_pressure;Samples;Min_cycle;Max_cycle;Signal;HPM_P1;HPM_P2
2021/01/27 00:01:09;;;;;;;49.85;17.33;;;;;;;;;;4977023;28;20034;-60
2021/01/27 00:03:35;;;;;;;53.63;17.38;;;;;;;;;;4972265;28;20049;-60
2021/01/27 00:06:01;;;;;;;67.78;17.45;;;;;;;;;;4974742;28;20038;-60
2021/01/27 00:08:27;;;;;;;66.03;18.02;;;;;;;;;;4982765;28;20554;-60
2021/01/27 00:10:53;;;;;;;61.78;16.55;;;;;;;;;;4979355;28;20248;-60
2021/01/27 00:13:20;;;;;;;61.05;15.88;;;;;;;;;;4972473;28;20045;-60
2021/01/27 00:15:46;;;;;;;63.05;17.73;;;;;;;;;;4973815;28;20490;-60
2021/01/27 00:18:13;;;;;;;48.33;17.10;;;;;;;;;;4982818;28;21132;-60
2021/01/27 00:20:40;;;;;;;58.80;18.35;;;;;;;;;;4976531;28;20066;-60
2021/01/27 00:23:06;;;;;;;55.63;16.63;;;;;;;;;;4974889;28;20096;-60
2021/01/27 00:25:33;;;;;;;51.90;15.93;;;;;;;;;;4972750;28;20338;-60
2021/01/27 00:27:59;;;;;;;59.63;18.35;;;;;;;;;;4975142;28;20034;-60
2021/01/27 00:30:27;;;;;;;63.60;20.25;;;;;;;;;;4976354;28;20382;-60
2021/01/27 00:32:53;;;;;;;76.80;19.20;;;;;;;;;;4973665;28;20038;-60
2021/01/27 00:35:22;;;;;;;71.40;18.92;;;;;;;;;;4965254;28;20026;-60
2021/01/27 00:37:48;;;;;;;72.68;21.10;;;;;;;;;;4969686;28;20043;-60
2021/01/27 00:40:14;;;;;;;63.33;20.50;;;;;;;;;;4974654;28;20046;-60
2021/01/27 00:42:40;;;;;;;64.72;20.75;;;;;;;;;;4972908;28;20038;-60
2021/01/27 00:45:06;;;;;;;79.82;20.70;;;;;;;;;;4973031;28;20557;-60
2021/01/27 00:47:33;;;;;;;83.85;24.08;;;;;;;;;;4975980;28;20088;-60
2021/01/27 00:49:59;;;;;;;89.18;25.88;;;;;;;;;;4969590;28;20084;-60
2021/01/27 00:52:25;;;;;;;87.53;25.52;;;;;;;;;;4968580;28;20038;-60
2021/01/27 00:54:51;;;;;;;90.78;26.80;;;;;;;;;;4977617;28;20118;-60
2021/01/27 00:57:18;;;;;;;99.93;28.85;;;;;;;;;;4972320;28;20146;-60
2021/01/27 00:59:44;;;;;;;107.72;28.67;;;;;;;;;;4978935;28;20030;-60
2021/01/27 01:02:10;;;;;;;97.10;29.25;;;;;;;;;;4976694;28;20034;-60
2021/01/27 01:04:36;;;;;;;98.90;29.88;;;;;;;;;;4967547;28;20121;-61
2021/01/27 01:07:02;;;;;;;105.53;29.17;;;;;;;;;;4963280;28;20157;-60
2021/01/27 01:09:28;;;;;;;101.88;29.65;;;;;;;;;;4962373;28;20062;-60
2021/01/27 01:11:55;;;;;;;106.00;29.60;;;;;;;;;;4970300;28;20083;-60
2021/01/27 01:14:21;;;;;;;103.25;31.42;;;;;;;;;;4966190;28;20085;-60
2021/01/27 01:16:47;;;;;;;116.57;33.95;;;;;;;;;;4973675;28;20089;-60
2021/01/27 01:19:13;;;;;;;125.45;34.05;;;;;;;;;;4972318;28;20125;-60
2021/01/27 01:21:39;;;;;;;130.70;35.30;;;;;;;;;;4976672;28;20052;-60
2021/01/27 01:24:06;;;;;;;129.82;34.95;;;;;;;;;;4964690;28;20037;-60
2021/01/27 01:26:32;;;;;;;149.95;37.72;;;;;;;;;;4977458;28;20099;-60
2021/01/27 01:28:58;;;;;;;124.80;37.90;;;;;;;;;;4959940;28;20286;-61
2021/01/27 01:31:24;;;;;;;137.80;38.63;;;;;;;;;;4976810;28;20112;-60
2021/01/27 01:33:50;;;;;;;137.07;37.22;;;;;;;;;;4965917;28;20042;-60
2021/01/27 01:36:16;;;;;;;132.25;37.17;;;;;;;;;;4973356;28;20038;-60
2021/01/27 01:38:42;;;;;;;133.43;38.70;;;;;;;;;;4976244;28;20041;-60
2021/01/27 01:41:08;;;;;;;155.23;39.65;;;;;;;;;;4971095;28;22401;-60
2021/01/27 01:43:35;;;;;;;144.60;40.42;;;;;;;;;;4963440;28;20050;-60
2021/01/27 01:46:04;;;;;;;149.85;39.63;;;;;;;;;;4971647;28;20255;-60
2021/01/27 01:48:38;;;;;;;153.77;41.92;;;;;;;;;;4975737;28;20096;-60
2021/01/27 01:51:16;;;;;;;162.43;40.10;;;;;;;;;;4970985;28;20065;-60
2021/01/27 01:53:42;;;;;;;144.48;41.40;;;;;;;;;;4970266;28;20503;-60
2021/01/27 01:56:10;;;;;;;150.55;42.22;;;;;;;;;;4972887;28;20033;-60
2021/01/27 01:58:37;;;;;;;148.20;40.03;;;;;;;;;;4972697;28;20081;-60
2021/01/27 02:01:03;;;;;;;160.02;43.00;;;;;;;;;;4972260;28;20133;-60
2021/01/27 02:03:29;;;;;;;157.52;43.13;;;;;;;;;;4970238;28;20041;-60
2021/01/27 02:05:58;;;;;;;143.15;42.70;;;;;;;;;;4972993;28;20447;-60
2021/01/27 02:08:24;;;;;;;170.70;44.47;;;;;;;;;;4971989;28;20045;-60
2021/01/27 02:10:50;;;;;;;173.18;43.97;;;;;;;;;;4973744;28;20480;-60
2021/01/27 02:13:29;;;;;;;161.15;43.92;;;;;;;;;;4973773;28;20068;-60
2021/01/27 02:15:58;;;;;;;170.65;45.53;;;;;;;;;;4969276;28;20030;-60
2021/01/27 02:18:43;;;;;;;168.98;45.85;;;;;;;;;;4966872;28;20518;-60
2021/01/27 02:21:27;;;;;;;175.27;45.40;;;;;;;;;;4968353;28;20581;-59
2021/01/27 02:24:07;;;;;;;155.10;45.40;;;;;;;;;;4974787;28;20430;-60
2021/01/27 02:26:40;;;;;;;178.15;46.35;;;;;;;;;;4965663;28;20194;-60
2021/01/27 02:29:06;;;;;;;169.85;44.95;;;;;;;;;;4977905;28;20065;-60
2021/01/27 02:31:32;;;;;;;189.77;46.83;;;;;;;;;;4972342;28;20072;-60
2021/01/27 02:34:09;;;;;;;176.05;46.97;;;;;;;;;;4969275;28;20046;-60
2021/01/27 02:36:42;;;;;;;186.20;48.88;;;;;;;;;;4975867;28;20228;-60
2021/01/27 02:39:11;;;;;;;199.07;47.42;;;;;;;;;;4974858;28;20048;-60
2021/01/27 02:41:40;;;;;;;179.43;48.45;;;;;;;;;;4972220;28;20054;-60
2021/01/27 02:44:23;;;;;;;186.65;47.35;;;;;;;;;;4975861;28;20038;-60
2021/01/27 02:46:51;;;;;;;194.35;48.03;;;;;;;;;;4974037;28;20034;-60
2021/01/27 02:49:17;;;;;;;193.75;50.13;;;;;;;;;;4972720;28;20042;-60
2021/01/27 02:51:50;;;;;;;179.40;48.80;;;;;;;;;;4974139;28;20100;-60
2021/01/27 02:54:23;;;;;;;188.38;49.25;;;;;;;;;;4969311;28;20544;-60
2021/01/27 02:56:49;;;;;;;196.90;45.97;;;;;;;;;;4973027;28;20460;-60
2021/01/27 02:59:18;;;;;;;192.63;50.83;;;;;;;;;;4979406;28;20128;-60
2021/01/27 03:01:55;;;;;;;201.15;51.38;;;;;;;;;;4978604;28;20045;-60
2021/01/27 03:04:29;;;;;;;185.90;49.35;;;;;;;;;;4971519;28;20073;-60
2021/01/27 03:06:57;;;;;;;195.73;50.28;;;;;;;;;;4975319;28;20046;-60
2021/01/27 03:09:29;;;;;;;178.68;49.33;;;;;;;;;;4964686;28;20053;-60
2021/01/27 03:11:55;;;;;;;197.25;51.97;;;;;;;;;;4976830;28;20045;-60
2021/01/27 03:14:21;;;;;;;186.20;49.45;;;;;;;;;;4974923;28;20169;-60
2021/01/27 03:16:56;;;;;;;178.05;49.13;;;;;;;;;;4977369;28;20046;-60
2021/01/27 03:19:41;;;;;;;183.90;49.83;;;;;;;;;;4978735;28;20037;-60
2021/01/27 03:22:28;;;;;;;185.35;48.67;;;;;;;;;;4977600;28;20034;-61
2021/01/27 03:25:00;;;;;;;169.98;48.92;;;;;;;;;;4978401;28;20142;-60
2021/01/27 03:27:32;;;;;;;178.60;48.20;;;;;;;;;;4964872;28;20125;-60
2021/01/27 03:29:59;;;;;;;177.05;50.33;;;;;;;;;;4980236;28;20046;-60
2021/01/27 03:32:37;;;;;;;184.23;49.00;;;;;;;;;;4976457;28;20045;-60
2021/01/27 03:35:09;;;;;;;169.40;48.70;;;;;;;;;;4975455;28;20125;-60
2021/01/27 03:37:38;;;;;;;178.18;49.20;;;;;;;;;;4968024;28;20064;-60
2021/01/27 03:40:08;;;;;;;171.63;50.03;;;;;;;;;;4974977;28;20955;-60
2021/01/27 03:42:41;;;;;;;169.60;50.90;;;;;;;;;;4980662;28;20035;-60
2021/01/27 03:45:08;;;;;;;164.77;49.67;;;;;;;;;;4970172;28;20427;-60
2021/01/27 03:47:55;;;;;;;160.77;49.67;;;;;;;;;;4972103;28;20034;-60
2021/01/27 03:50:23;;;;;;;168.20;49.40;;;;;;;;;;4969354;28;20035;-59
2021/01/27 03:52:55;;;;;;;157.60;48.70;;;;;;;;;;4967832;28;20065;-60
2021/01/27 03:55:31;;;;;;;175.52;50.83;;;;;;;;;;4978750;28;20038;-60
2021/01/27 03:58:02;;;;;;;157.80;49.10;;;;;;;;;;4970682;28;20133;-60
2021/01/27 04:00:29;;;;;;;167.43;48.72;;;;;;;;;;4969930;28;20160;-60
2021/01/27 04:03:05;;;;;;;168.77;50.78;;;;;;;;;;4976936;28;20034;-60
2021/01/27 04:05:31;;;;;;;177.95;51.38;;;;;;;;;;4965411;28;20053;-60
2021/01/27 04:07:57;;;;;;;165.30;49.20;;;;;;;;;;4969426;28;20030;-61
2021/01/27 04:10:23;;;;;;;151.50;50.45;;;;;;;;;;4971704;28;20042;-60
2021/01/27 04:12:49;;;;;;;146.00;47.03;;;;;;;;;;4968734;28;20034;-60
2021/01/27 04:15:15;;;;;;;161.13;47.58;;;;;;;;;;4975642;28;20075;-60
2021/01/27 04:17:41;;;;;;;147.80;47.72;;;;;;;;;;4978627;28;20058;-60
2021/01/27 04:20:08;;;;;;;146.68;46.85;;;;;;;;;;4972193;28;21498;-60
2021/01/27 04:22:34;;;;;;;132.57;46.20;;;;;;;;;;4970349;28;20184;-60
2021/01/27 04:25:00;;;;;;;141.13;47.00;;;;;;;;;;4968214;28;20054;-60
2021/01/27 04:27:26;;;;;;;148.18;46.30;;;;;;;;;;4975282;28;20558;-60
2021/01/27 04:29:51;;;;;;;137.15;46.10;;;;;;;;;;4976536;28;20026;-60
2021/01/27 04:32:18;;;;;;;141.73;46.13;;;;;;;;;;4966268;28;20496;-60
2021/01/27 04:34:44;;;;;;;133.82;45.60;;;;;;;;;;4960073;28;20046;-60
2021/01/27 04:37:09;;;;;;;128.65;45.45;;;;;;;;;;4972252;28;20030;-60
2021/01/27 04:39:35;;;;;;;140.98;44.28;;;;;;;;;;4970386;28;20041;-60
2021/01/27 04:42:02;;;;;;;135.95;45.08;;;;;;;;;;4958725;28;20042;-60
2021/01/27 04:44:28;;;;;;;124.47;42.85;;;;;;;;;;4969494;28;20867;-60
2021/01/27 04:46:54;;;;;;;141.73;44.92;;;;;;;;;;4972189;28;20038;-60
2021/01/27 04:49:37;;;;;;;124.35;42.60;;;;;;;;;;4972330;28;20042;-60
2021/01/27 04:52:03;;;;;;;120.75;41.80;;;;;;;;;;4973818;28;21043;-60
2021/01/27 04:54:29;;;;;;;130.02;44.08;;;;;;;;;;4971763;28;20074;-60
2021/01/27 04:57:12;;;;;;;145.00;45.67;;;;;;;;;;4971568;28;20037;-61
2021/01/27 04:59:47;;;;;;;129.27;42.35;;;;;;;;;;4973228;28;20132;-61
2021/01/27 05:02:37;;;;;;;118.88;41.70;;;;;;;;;;4972008;28;20061;-61
2021/01/27 05:05:06;;;;;;;117.32;42.15;;;;;;;;;;4972005;28;20218;-60
2021/01/27 05:07:38;;;;;;;124.13;41.30;;;;;;;;;;4966572;28;20583;-61
2021/01/27 05:10:04;;;;;;;135.60;41.50;;;;;;;;;;4970375;28;20034;-60
2021/01/27 05:12:42;;;;;;;122.90;41.50;;;;;;;;;;4970037;28;20443;-60
2021/01/27 05:15:10;;;;;;;119.13;41.45;;;;;;;;;;4970273;28;20495;-60
2021/01/27 05:17:37;;;;;;;117.40;39.60;;;;;;;;;;4968735;28;20045;-60
2021/01/27 05:20:04;;;;;;;113.18;38.58;;;;;;;;;;4968951;28;20094;-60
2021/01/27 05:22:30;;;;;;;122.47;38.70;;;;;;;;;;4969411;28;20091;-60
2021/01/27 05:24:56;;;;;;;112.65;40.85;;;;;;;;;;4972432;28;20042;-60
2021/01/27 05:27:26;;;;;;;100.60;38.40;;;;;;;;;;4971756;28;21630;-60
2021/01/27 05:29:59;;;;;;;105.82;38.95;;;;;;;;;;4973780;28;20526;-60
2021/01/27 05:32:25;;;;;;;101.32;36.22;;;;;;;;;;4973427;28;20121;-60
2021/01/27 05:34:52;;;;;;;104.88;39.45;;;;;;;;;;4966841;28;20534;-60
2021/01/27 05:37:20;;;;;;;100.30;37.03;;;;;;;;;;4970359;28;20041;-60
2021/01/27 05:39:47;;;;;;;105.97;36.63;;;;;;;;;;4979494;28;20073;-61
2021/01/27 05:42:29;;;;;;;103.05;38.30;;;;;;;;;;4971797;28;20492;-61
2021/01/27 05:44:57;;;;;;;117.15;39.65;;;;;;;;;;4972051;28;20752;-60
2021/01/27 05:47:37;;;;;;;108.95;38.22;;;;;;;;;;4974582;28;20412;-60
2021/01/27 05:50:15;;;;;;;101.82;39.53;;;;;;;;;;4972360;28;20177;-60
2021/01/27 05:52:42;;;;;;;100.32;36.70;;;;;;;;;;4962780;28;20338;-60
2021/01/27 05:55:08;;;;;;;99.30;36.47;;;;;;;;;;4972015;28;20092;-60
2021/01/27 05:57:34;;;;;;;102.05;36.50;;;;;;;;;;4972075;28;20041;-61
2021/01/27 06:00:19;;;;;;;92.43;36.75;;;;;;;;;;4973030;28;20042;-62
2021/01/27 06:02:45;;;;;;;89.43;34.67;;;;;;;;;;4970541;28;20084;-60
2021/01/27 06:05:15;;;;;;;97.43;36.42;;;;;;;;;;4974584;28;20038;-60
2021/01/27 06:07:42;;;;;;;81.25;33.55;;;;;;;;;;4975158;28;20589;-60
2021/01/27 06:10:37;;;;;;;89.55;36.05;;;;;;;;;;4984368;28;20128;-60
2021/01/27 06:13:23;;;;;;;90.95;32.80;;;;;;;;;;4969383;28;20188;-60
2021/01/27 06:15:49;;;;;;;83.38;33.08;;;;;;;;;;4983858;28;20142;-60
2021/01/27 06:18:25;;;;;;;89.45;33.65;;;;;;;;;;4983936;28;20536;-60
2021/01/27 06:20:57;;;;;;;86.63;31.98;;;;;;;;;;4978754;28;20038;-60
2021/01/27 06:23:42;;;;;;;78.60;31.35;;;;;;;;;;4970239;28;20034;-60
2021/01/27 06:26:17;;;;;;;76.65;30.55;;;;;;;;;;4974608;28;20027;-60
2021/01/27 06:28:52;;;;;;;73.50;29.52;;;;;;;;;;4970039;28;20531;-63
2021/01/27 06:31:30;;;;;;;75.93;31.70;;;;;;;;;;4977281;28;20041;-61
2021/01/27 06:34:08;;;;;;;73.78;30.67;;;;;;;;;;4970742;28;20511;-60
2021/01/27 06:36:43;;;;;;;64.72;29.88;;;;;;;;;;4971270;28;20039;-64
2021/01/27 06:39:28;;;;;;;60.55;28.35;;;;;;;;;;4979144;28;20038;-61
2021/01/27 06:41:54;;;;;;;74.18;30.20;;;;;;;;;;4983709;28;20042;-60
2021/01/27 06:44:20;;;;;;;59.13;27.77;;;;;;;;;;4970482;28;20057;-60
2021/01/27 06:46:55;;;;;;;63.75;27.65;;;;;;;;;;4977782;28;20038;-60
2021/01/27 06:49:30;;;;;;;58.33;24.77;;;;;;;;;;4969159;28;20100;-60
2021/01/27 06:52:10;;;;;;;49.30;24.17;;;;;;;;;;4979845;28;20035;-61
2021/01/27 06:54:36;;;;;;;52.28;24.83;;;;;;;;;;4985305;28;20038;-61
2021/01/27 06:57:02;;;;;;;52.35;24.20;;;;;;;;;;4985715;28;20096;-60
2021/01/27 06:59:28;;;;;;;43.78;21.67;;;;;;;;;;4982070;28;20076;-60
2021/01/27 07:02:03;;;;;;;38.83;21.27;;;;;;;;;;4982802;28;20034;-60
2021/01/27 07:04:35;;;;;;;41.20;20.42;;;;;;;;;;4982996;28;20042;-60
2021/01/27 07:07:04;;;;;;;39.78;20.90;;;;;;;;;;4988724;28;20095;-59
2021/01/27 07:09:49;;;;;;;44.40;20.67;;;;;;;;;;4976130;28;20495;-60
2021/01/27 07:12:18;;;;;;;41.50;20.55;;;;;;;;;;4975852;28;20077;-60
2021/01/27 07:14:56;;;;;;;34.80;19.67;;;;;;;;;;4975324;28;20138;-60
2021/01/27 07:17:40;;;;;;;33.53;18.90;;;;;;;;;;4982337;28;20820;-60
2021/01/27 07:20:09;;;;;;;31.58;17.88;;;;;;;;;;4981735;28;20495;-60
2021/01/27 07:22:43;;;;;;;35.10;18.58;;;;;;;;;;4981550;28;20077;-60
2021/01/27 07:25:12;;;;;;;36.13;18.73;;;;;;;;;;4978356;28;20038;-61
2021/01/27 07:27:57;;;;;;;31.50;18.80;;;;;;;;;;4985388;28;20135;-60
2021/01/27 07:30:30;;;;;;;33.97;17.90;;;;;;;;;;4992397;28;20403;-60
2021/01/27 07:32:58;;;;;;;36.88;17.75;;;;;;;;;;4987796;28;20034;-60
2021/01/27 07:35:24;;;;;;;29.38;18.17;;;;;;;;;;4976690;28;20045;-60
2021/01/27 07:37:59;;;;;;;27.23;17.70;;;;;;;;;;4986704;28;20053;-60
2021/01/27 07:40:30;;;;;;;37.83;18.00;;;;;;;;;;4986173;28;20505;-60
2021/01/27 07:42:59;;;;;;;28.48;16.70;;;;;;;;;;4990549;28;20037;-60
2021/01/27 07:45:33;;;;;;;23.83;17.00;;;;;;;;;;4986981;28;20344;-60
2021/01/27 07:48:08;;;;;;;25.35;16.35;;;;;;;;;;4983617;28;20038;-60
2021/01/27 07:50:35;;;;;;;26.52;16.67;;;;;;;;;;4986915;28;20576;-60
2021/01/27 07:53:01;;;;;;;29.42;16.20;;;;;;;;;;4984244;28;20034;-60
2021/01/27 07:55:36;;;;;;;26.00;16.35;;;;;;;;;;4984672;28;20349;-60
2021/01/27 07:58:07;;;;;;;28.70;16.23;;;;;;;;;;4988012;28;21015;-60
2021/01/27 08:00:38;;;;;;;27.33;15.45;;;;;;;;;;4986595;28;20208;-60
2021/01/27 08:03:10;;;;;;;24.52;15.88;;;;;;;;;;4981212;28;20045;-60
2021/01/27 08:05:38;;;;;;;24.52;15.07;;;;;;;;;;4987419;28;22029;-61
2021/01/27 08:08:10;;;;;;;28.88;16.63;;;;;;;;;;4984052;28;20030;-60
2021/01/27 08:10:37;;;;;;;28.13;16.77;;;;;;;;;;4984752;28;20069;-60
2021/01/27 08:13:05;;;;;;;30.35;16.13;;;;;;;;;;4982107;28;20573;-60
2021/01/27 08:15:31;;;;;;;22.98;15.13;;;;;;;;;;4979329;28;20029;-60
2021/01/27 08:18:00;;;;;;;29.50;16.33;;;;;;;;;;4980399;28;20038;-60
2021/01/27 08:20:26;;;;;;;23.95;16.02;;;;;;;;;;4985775;28;20038;-61
2021/01/27 08:23:05;;;;;;;27.48;16.88;;;;;;;;;;4986867;28;20058;-60
2021/01/27 08:25:50;;;;;;;30.27;16.65;;;;;;;;;;4985389;28;20082;-60
2021/01/27 08:28:19;;;;;;;27.25;17.10;;;;;;;;;;4979094;28;20488;-61
2021/01/27 08:31:05;;;;;;;24.70;15.98;;;;;;;;;;4984815;28;20615;-60
2021/01/27 08:33:33;;;;;;;31.95;16.88;;;;;;;;;;4979863;28;20056;-61
2021/01/27 08:36:01;;;;;;;29.58;16.92;;;;;;;;;;4986750;28;20069;-60
2021/01/27 08:38:29;;;;;;;25.50;16.20;;;;;;;;;;4987092;28;20038;-60
2021/01/27 08:40:56;;;;;;;22.08;15.55;;;;;;;;;;4990168;28;20042;-61
2021/01/27 08:43:26;;;;;;;27.08;16.73;;;;;;;;;;4979865;28;20557;-60
2021/01/27 08:45:52;;;;;;;26.52;16.55;;;;;;;;;;4987594;28;20038;-61
2021/01/27 08:48:37;;;;;;;29.85;16.75;;;;;;;;;;4983135;28;20088;-61
2021/01/27 08:51:03;;;;;;;27.58;16.58;;;;;;;;;;4983529;28;20038;-60
2021/01/27 08:53:49;;;;;;;28.42;17.35;;;;;;;;;;4976137;28;20691;-60
2021/01/27 08:56:15;;;;;;;26.27;15.90;;;;;;;;;;4987342;28;20034;-61
2021/01/27 08:58:45;;;;;;;25.15;15.05;;;;;;;;;;4990231;28;20459;-61
2021/01/27 09:01:24;;;;;;;27.77;17.17;;;;;;;;;;4984985;28;20385;-61
2021/01/27 09:03:50;;;;;;;28.30;16.60;;;;;;;;;;4977773;28;20049;-60
2021/01/27 09:06:21;;;;;;;32.78;17.15;;;;;;;;;;4982106;28;20034;-61
2021/01/27 09:08:48;;;;;;;29.50;17.60;;;;;;;;;;4980801;28;20046;-61
2021/01/27 09:11:17;;;;;;;32.70;18.58;;;;;;;;;;4983918;28;20538;-61
2021/01/27 09:13:45;;;;;;;34.47;18.88;;;;;;;;;;4979337;28;20065;-61
2021/01/27 09:16:14;;;;;;;35.72;18.63;;;;;;;;;;4987374;28;20523;-61
2021/01/27 09:18:40;;;;;;;34.83;20.13;;;;;;;;;;4988610;28;20041;-61
2021/01/27 09:21:06;;;;;;;34.00;20.23;;;;;;;;;;4987802;28;20507;-61
2021/01/27 09:23:32;;;;;;;36.67;21.20;;;;;;;;;;4985082;28;20153;-61
2021/01/27 09:26:02;;;;;;;34.53;20.30;;;;;;;;;;4988360;28;20052;-61
2021/01/27 09:28:28;;;;;;;36.20;20.52;;;;;;;;;;4984700;28;20037;-62
2021/01/27 09:30:55;;;;;;;41.53;21.42;;;;;;;;;;4985269;28;20038;-62
2021/01/27 09:33:21;;;;;;;39.00;21.70;;;;;;;;;;4989312;28;20049;-61
2021/01/27 09:35:47;;;;;;;41.83;22.75;;;;;;;;;;4984627;28;20030;-62
2021/01/27 09:38:13;;;;;;;41.88;23.17;;;;;;;;;;4988171;28;20289;-61
2021/01/27 09:40:53;;;;;;;43.97;23.08;;;;;;;;;;4984432;28;20041;-61
2021/01/27 09:43:21;;;;;;;41.58;23.60;;;;;;;;;;4991764;28;20096;-61
2021/01/27 09:45:48;;;;;;;44.95;22.70;;;;;;;;;;4988397;28;20106;-62
2021/01/27 09:48:16;;;;;;;47.10;23.67;;;;;;;;;;4990652;28;20038;-62
2021/01/27 09:50:44;;;;;;;43.40;23.52;;;;;;;;;;4988077;28;20042;-62
2021/01/27 09:53:20;;;;;;;43.42;23.08;;;;;;;;;;4986139;28;20829;-61
2021/01/27 09:55:47;;;;;;;40.80;23.08;;;;;;;;;;4992072;28;20491;-62
2021/01/27 09:58:13;;;;;;;47.65;26.67;;;;;;;;;;4987660;28;20045;-62
2021/01/27 10:00:39;;;;;;;45.85;23.85;;;;;;;;;;4989847;28;20034;-62
2021/01/27 10:03:29;;;;;;;44.22;24.75;;;;;;;;;;4993545;28;20033;-62
2021/01/27 10:05:56;;;;;;;45.22;25.77;;;;;;;;;;4986785;28;20038;-62
2021/01/27 10:08:25;;;;;;;47.38;25.23;;;;;;;;;;4988961;28;20046;-62
2021/01/27 10:11:00;;;;;;;40.47;23.10;;;;;;;;;;4988139;28;20129;-62
2021/01/27 10:13:32;;;;;;;48.80;25.65;;;;;;;;;;4984712;28;20044;-62
2021/01/27 10:16:03;;;;;;;45.30;24.15;;;;;;;;;;4986736;28;20045;-62
2021/01/27 10:18:30;;;;;;;46.78;25.30;;;;;;;;;;4988709;28;20065;-62
2021/01/27 10:21:00;;;;;;;42.35;23.13;;;;;;;;;;4990003;28;20042;-62
2021/01/27 10:23:35;;;;;;;45.90;25.00;;;;;;;;;;4987923;28;20517;-62
2021/01/27 10:26:19;;;;;;;43.45;24.90;;;;;;;;;;4991888;28;20038;-62
2021/01/27 10:28:45;;;;;;;44.58;25.33;;;;;;;;;;4989555;28;20133;-62
2021/01/27 10:31:11;;;;;;;47.55;25.33;;;;;;;;;;4990910;28;20046;-62
2021/01/27 10:33:43;;;;;;;40.03;22.95;;;;;;;;;;4991163;28;20077;-62
2021/01/27 10:36:48;;;;;;;41.47;23.52;;;;;;;;;;4990209;28;20057;-62
2021/01/27 10:39:14;;;;;;;45.88;25.73;;;;;;;;;;4946746;28;20087;-62
2021/01/27 10:41:40;;;;;;;41.75;23.27;;;;;;;;;;4953131;28;20095;-62
2021/01/27 10:44:18;;;;;;;41.67;23.83;;;;;;;;;;4966254;28;20027;-62
2021/01/27 10:46:44;;;;;;;45.25;23.80;;;;;;;;;;4989880;28;20042;-62
2021/01/27 10:49:10;;;;;;;42.85;23.10;;;;;;;;;;4981750;28;20049;-62
2021/01/27 10:51:36;;;;;;;43.60;24.83;;;;;;;;;;4986212;28;20060;-62
2021/01/27 10:54:02;;;;;;;41.75;23.77;;;;;;;;;;4975346;28;20042;-61
2021/01/27 10:56:28;;;;;;;41.55;24.33;;;;;;;;;;4987106;28;20678;-61
2021/01/27 10:58:55;;;;;;;42.28;22.65;;;;;;;;;;4994653;28;20034;-61
2021/01/27 11:01:21;;;;;;;43.20;23.05;;;;;;;;;;4991572;28;20141;-61
2021/01/27 11:03:47;;;;;;;41.75;23.73;;;;;;;;;;4990222;28;20037;-61
2021/01/27 11:06:13;;;;;;;44.38;23.92;;;;;;;;;;4991756;28;20038;-61
2021/01/27 11:08:44;;;;;;;41.38;23.38;;;;;;;;;;4993552;28;20037;-61
2021/01/27 11:11:10;;;;;;;41.05;22.10;;;;;;;;;;4992938;28;20296;-61
2021/01/27 11:13:36;;;;;;;39.97;22.55;;;;;;;;;;4992571;28;20046;-61
2021/01/27 11:16:11;;;;;;;41.35;22.15;;;;;;;;;;4993807;28;20123;-61
2021/01/27 11:18:38;;;;;;;38.65;21.73;;;;;;;;;;4984788;28;20042;-61
2021/01/27 11:21:04;;;;;;;38.45;21.77;;;;;;;;;;4993638;28;20069;-61
2021/01/27 11:23:30;;;;;;;37.60;20.95;;;;;;;;;;4992186;28;20407;-61
2021/01/27 11:25:57;;;;;;;41.25;22.35;;;;;;;;;;4992614;28;20490;-61
2021/01/27 11:28:23;;;;;;;38.35;20.80;;;;;;;;;;4992781;28;20369;-61
2021/01/27 11:30:50;;;;;;;34.63;20.88;;;;;;;;;;4987796;28;20098;-61
2021/01/27 11:33:17;;;;;;;36.78;21.75;;;;;;;;;;4985420;28;20138;-61
2021/01/27 11:35:43;;;;;;;37.13;21.42;;;;;;;;;;5005128;28;20096;-61
2021/01/27 11:38:09;;;;;;;40.33;20.80;;;;;;;;;;4983879;28;20042;-61
2021/01/27 11:40:35;;;;;;;36.80;20.92;;;;;;;;;;4983830;28;21459;-61
2021/01/27 11:43:01;;;;;;;38.15;22.60;;;;;;;;;;4991056;28;20029;-61
2021/01/27 11:45:27;;;;;;;37.45;21.05;;;;;;;;;;4991210;28;20409;-61
2021/01/27 11:47:53;;;;;;;34.80;20.08;;;;;;;;;;4988500;28;20048;-61
2021/01/27 11:50:21;;;;;;;36.90;21.33;;;;;;;;;;4977588;28;20048;-60
2021/01/27 11:52:49;;;;;;;36.80;21.10;;;;;;;;;;4993641;28;20046;-61
2021/01/27 11:55:15;;;;;;;39.05;21.02;;;;;;;;;;4992455;28;20389;-61
2021/01/27 11:57:41;;;;;;;40.92;21.98;;;;;;;;;;4989677;28;20038;-61
2021/01/27 12:00:08;;;;;;;35.10;20.50;;;;;;;;;;4989443;28;20049;-61
2021/01/27 12:02:33;;;;;;;36.25;21.02;;;;;;;;;;4985212;28;20480;-61
2021/01/27 12:04:59;;;;;;;32.90;20.48;;;;;;;;;;4986287;28;20076;-61
2021/01/27 12:07:25;;;;;;;34.97;19.05;;;;;;;;;;4980268;28;20046;-60
2021/01/27 12:09:51;;;;;;;34.72;20.77;;;;;;;;;;4988678;28;20034;-61
2021/01/27 12:12:17;;;;;;;33.85;22.45;;;;;;;;;;4985187;28;20527;-61
2021/01/27 12:14:43;;;;;;;33.97;20.33;;;;;;;;;;4980837;28;20042;-61
2021/01/27 12:17:11;;;;;;;35.83;19.42;;;;;;;;;;4980968;28;20624;-61
2021/01/27 12:19:41;;;;;;;34.25;20.98;;;;;;;;;;4982581;28;20046;-61
2021/01/27 12:22:07;;;;;;;30.40;19.23;;;;;;;;;;4987929;28;20112;-60
2021/01/27 12:24:33;;;;;;;34.55;19.90;;;;;;;;;;4989973;28;20034;-61
2021/01/27 12:26:59;;;;;;;30.73;19.63;;;;;;;;;;4983135;28;20046;-61
2021/01/27 12:29:25;;;;;;;33.35;19.30;;;;;;;;;;4985885;28;20052;-61
2021/01/27 12:31:51;;;;;;;33.80;19.65;;;;;;;;;;4984438;28;20735;-60
2021/01/27 12:34:18;;;;;;;31.40;20.00;;;;;;;;;;4986242;28;20249;-61
2021/01/27 12:36:44;;;;;;;32.35;19.92;;;;;;;;;;4991620;28;20483;-61
2021/01/27 12:39:10;;;;;;;32.60;19.42;;;;;;;;;;4992170;28;20042;-61
2021/01/27 12:41:36;;;;;;;32.33;19.30;;;;;;;;;;4991584;28;20038;-61
2021/01/27 12:44:07;;;;;;;29.88;18.70;;;;;;;;;;4989828;28;20510;-61
2021/01/27 12:46:33;;;;;;;30.73;18.83;;;;;;;;;;4992103;28;20444;-60
2021/01/27 12:48:59;;;;;;;38.22;23.23;;;;;;;;;;4989027;28;20108;-61
2021/01/27 12:51:25;;;;;;;29.08;17.80;;;;;;;;;;4992823;28;20046;-61
2021/01/27 12:53:51;;;;;;;31.10;19.10;;;;;;;;;;4992758;28;20045;-62
2021/01/27 12:56:17;;;;;;;31.33;18.95;;;;;;;;;;4994376;28;20034;-61
2021/01/27 12:58:43;;;;;;;33.83;18.60;;;7.20;58.50;;;;;;4994521;28;20068;-62
2021/01/27 13:01:09;;;;;;;31.75;19.27;;;;;;;;;;4993279;28;20463;-62
2021/01/27 13:03:35;;;;;;;38.95;20.98;;;;;;;;;;4989586;28;20537;-61
2021/01/27 13:06:01;;;;;;;31.38;19.42;;;;;;;;;;4988812;28;20133;-61
2021/01/27 13:08:27;;;;;;;31.27;19.35;;;;;;;;;;4984652;28;22665;-62
2021/01/27 13:10:53;;;;;;;28.77;18.35;;;;;;;;;;4985597;28;20049;-62
2021/01/27 13:13:19;;;;;;;31.30;19.38;;;;;;;;;;4982630;28;20049;-62
2021/01/27 13:15:45;;;;;;;30.35;18.55;;;;;;;;;;4983252;28;20091;-62
2021/01/27 13:18:11;;;;;;;32.22;20.10;;;;;;;;;;4990904;28;20045;-61
2021/01/27 13:20:37;;;;;;;32.42;19.83;;;;;;;;;;4988139;28;20046;-61
2021/01/27 13:23:04;;;;;;;30.98;19.33;;;;;;;;;;4989542;28;20031;-63
2021/01/27 13:25:30;;;;;;;30.33;19.48;;;;;;;;;;4987477;28;20040;-65
2021/01/27 13:27:56;;;;;;;34.72;19.65;;;;;;;;;;4988980;28;20042;-65
2021/01/27 13:30:23;;;;;;;31.85;18.25;;;;;;;;;;4986642;28;20349;-64
2021/01/27 13:32:49;;;;;;;30.90;19.25;;;;;;;;;;4981740;28;20108;-62
2021/01/27 13:35:17;;;;;;;35.35;20.73;;;;;;;;;;4988681;28;20023;-62
2021/01/27 13:37:43;;;;;;;35.25;21.33;;;;;;;;;;4989332;28;20023;-62
2021/01/27 13:40:09;;;;;;;34.10;21.20;;;;;;;;;;4990741;28;20037;-61
2021/01/27 13:42:35;;;;;;;33.08;19.33;;;;;;;;;;5001418;28;20037;-61
2021/01/27 13:45:01;;;;;;;34.08;19.52;;;;;;;;;;4987758;28;20034;-60
2021/01/27 13:47:27;;;;;;;33.25;19.33;;;;;;;;;;4988722;28;20541;-61
2021/01/27 13:49:53;;;;;;;31.73;19.80;;;;;;;;;;4982334;28;20049;-61
2021/01/27 13:52:19;;;;;;;36.45;21.38;;;;;;;;;;4980955;28;20044;-60
2021/01/27 13:54:45;;;;;;;35.00;19.77;;;;;;;;;;4981441;28;20443;-61
2021/01/27 13:57:11;;;;;;;34.35;20.38;;;;;;;;;;4980800;28;20125;-60
2021/01/27 13:59:37;;;;;;;36.60;19.73;;;;;;;;;;4982353;28;20065;-60
2021/01/27 14:02:03;;;;;;;38.15;20.63;;;;;;;;;;4980314;28;20504;-60
2021/01/27 14:04:29;;;;;;;34.22;19.60;;;;;;;;;;4964641;28;20643;-60
2021/01/27 14:06:55;;;;;;;35.83;20.13;;;;;;;;;;4978337;28;20038;-60
2021/01/27 14:09:21;;;;;;;36.60;20.45;;;;;;;;;;4976114;28;23984;-61
2021/01/27 14:11:48;;;;;;;36.90;20.83;;;;;;;;;;4981533;28;20034;-60
2021/01/27 14:14:14;;;;;;;34.67;20.45;;;;;;;;;;4983603;28;20054;-60
2021/01/27 14:16:40;;;;;;;37.33;20.35;;;;;;;;;;4985012;28;20129;-60
2021/01/27 14:19:06;;;;;;;35.75;19.55;;;;;;;;;;4986129;28;20049;-60
2021/01/27 14:21:32;;;;;;;35.13;19.70;;;;;;;;;;4982183;28;20038;-60
2021/01/27 14:23:58;;;;;;;37.42;21.08;;;;;;;;;;4984191;28;20302;-61
2021/01/27 14:26:24;;;;;;;36.83;20.00;;;;;;;;;;4987296;28;20394;-60